Temp: 11.0°C   Baro: 1005.3mb
  Wind: 11.0mph   Dir: W (275°)
  Rain: 7.8mm (0.0mm/hr)
  Solar: 76W/m2  Hum: 91%
 
Bath Spa Weather Historical Data
Daily Summary for October 22, 2019 Units:  Both    English   Metric
Next Day »
Daily Weekly Monthly Yearly Custom
  High: Low: Average:
Temperature: 60.1 °F /  15.6 °C 44.8 °F /  7.1 °C 50.9 °F /  10.5 °C
Dew Point: 49.3 °F /  9.6 °C 42.3 °F /  5.7 °C 45.7 °F /  7.6 °C
Humidity: 94% 62% 83%
Wind Speed: 11mph /  17.7km/h - 0.7mph /  1.2km/h
Wind Gust: 11mph /  17.7km/h - -
Wind direction- - WSW
Pressure: 30.3 in /  1024.3 hPa 30.1 in /  1020.5 hPa -
Precipitation: 0 in /  0.0 mm    
Historical Graphs
 
 
Tabular Data for October 22, 2019
Time Temperature Dew Point Pressure Wind direction Wind Speed Wind Gust Humidity Rainfall Rate (Hourly) solar
00:00 48 °F /  8.9 °C 45 °F /  7.2 °C 30.2in /  1023.2hPa Calm     89% 0in /  0.0mm 0.00 W/m2
00:05 48 °F /  8.9 °C 45 °F /  7.2 °C 30.2in /  1023.2hPa Calm   1mph /  1.6km/h 89% 0in /  0.0mm 0.00 W/m2
00:10 48 °F /  8.9 °C 45 °F /  7.2 °C 30.2in /  1023.2hPa Calm     89% 0in /  0.0mm 0.00 W/m2
00:15 48 °F /  8.9 °C 45 °F /  7.2 °C 30.2in /  1023.2hPa Calm     89% 0in /  0.0mm 0.00 W/m2
00:20 48 °F /  8.9 °C 45 °F /  7.2 °C 30.2in /  1023.2hPa Calm     89% 0in /  0.0mm 0.00 W/m2
00:25 47.8 °F /  8.8 °C 45 °F /  7.2 °C 30.2in /  1023.2hPa Calm     90% 0in /  0.0mm 0.00 W/m2
00:30 47.8 °F /  8.8 °C 45 °F /  7.2 °C 30.2in /  1023.2hPa Calm     90% 0in /  0.0mm 0.00 W/m2
00:35 47.7 °F /  8.7 °C 45 °F /  7.2 °C 30.2in /  1023.2hPa Calm     90% 0in /  0.0mm 0.00 W/m2
00:40 47.7 °F /  8.7 °C 45 °F /  7.2 °C 30.2in /  1023.2hPa Calm     90% 0in /  0.0mm 0.00 W/m2
00:45 47.7 °F /  8.7 °C 45 °F /  7.2 °C 30.2in /  1023.2hPa Calm     90% 0in /  0.0mm 0.00 W/m2
00:50 47.5 °F /  8.6 °C 44.8 °F /  7.1 °C 30.2in /  1023.2hPa Calm     90% 0in /  0.0mm 0.00 W/m2
00:55 47.1 °F /  8.4 °C 44.4 °F /  6.9 °C 30.2in /  1023.2hPa NNW 0.9mph /  1.4km/h 2mph /  3.2km/h 90% 0in /  0.0mm 0.00 W/m2
01:00 46.9 °F /  8.3 °C 44.2 °F /  6.8 °C 30.2in /  1023.2hPa Calm   1mph /  1.6km/h 90% 0in /  0.0mm 0.00 W/m2
01:05 46.9 °F /  8.3 °C 44.2 °F /  6.8 °C 30.2in /  1023.2hPa Calm   1mph /  1.6km/h 90% 0in /  0.0mm 0.00 W/m2
01:10 46.9 °F /  8.3 °C 44.2 °F /  6.8 °C 30.2in /  1023.2hPa Calm     90% 0in /  0.0mm 0.00 W/m2
01:15 46.9 °F /  8.3 °C 44.4 °F /  6.9 °C 30.2in /  1023.2hPa Calm   1mph /  1.6km/h 91% 0in /  0.0mm 0.00 W/m2
01:20 46.9 °F /  8.3 °C 44.4 °F /  6.9 °C 30.2in /  1023.2hPa Calm     91% 0in /  0.0mm 0.00 W/m2
01:25 46.9 °F /  8.3 °C 44.4 °F /  6.9 °C 30.2in /  1023.2hPa Calm     91% 0in /  0.0mm 0.00 W/m2
01:30 46.9 °F /  8.3 °C 44.4 °F /  6.9 °C 30.2in /  1023.2hPa Calm     91% 0in /  0.0mm 0.00 W/m2
01:35 47.1 °F /  8.4 °C 44.6 °F /  7.0 °C 30.2in /  1023.2hPa Calm     91% 0in /  0.0mm 0.00 W/m2
01:40 46.9 °F /  8.3 °C 44.4 °F /  6.9 °C 30.2in /  1023.2hPa Calm     91% 0in /  0.0mm 0.00 W/m2
01:45 46.9 °F /  8.3 °C 44.4 °F /  6.9 °C 30.2in /  1023.2hPa Calm     91% 0in /  0.0mm 0.00 W/m2
01:50 46.8 °F /  8.2 °C 44.2 °F /  6.8 °C 30.2in /  1022.9hPa Calm     91% 0in /  0.0mm 0.00 W/m2
01:55 46.6 °F /  8.1 °C 44.1 °F /  6.7 °C 30.2in /  1022.9hPa Calm     91% 0in /  0.0mm 0.00 W/m2
02:00 46.6 °F /  8.1 °C 44.1 °F /  6.7 °C 30.2in /  1022.9hPa Calm     91% 0in /  0.0mm 0.00 W/m2
02:05 46.4 °F /  8.0 °C 43.9 °F /  6.6 °C 30.2in /  1022.9hPa Calm     91% 0in /  0.0mm 0.00 W/m2
02:10 46.2 °F /  7.9 °C 43.7 °F /  6.5 °C 30.2in /  1022.9hPa Calm     91% 0in /  0.0mm 0.00 W/m2
02:15 46.2 °F /  7.9 °C 43.7 °F /  6.5 °C 30.2in /  1022.9hPa Calm     91% 0in /  0.0mm 0.00 W/m2
02:20 46.2 °F /  7.9 °C 43.7 °F /  6.5 °C 30.2in /  1022.9hPa Calm     91% 0in /  0.0mm 0.00 W/m2
02:25 46.2 °F /  7.9 °C 43.7 °F /  6.5 °C 30.2in /  1022.9hPa Calm     91% 0in /  0.0mm 0.00 W/m2
02:30 46.2 °F /  7.9 °C 43.7 °F /  6.5 °C 30.2in /  1022.9hPa Calm     91% 0in /  0.0mm 0.00 W/m2
02:35 46 °F /  7.8 °C 43.5 °F /  6.4 °C 30.2in /  1022.9hPa Calm     91% 0in /  0.0mm 0.00 W/m2
02:40 45.9 °F /  7.7 °C 43.3 °F /  6.3 °C 30.2in /  1022.9hPa Calm     91% 0in /  0.0mm 0.00 W/m2
02:45 45.9 °F /  7.7 °C 43.3 °F /  6.3 °C 30.2in /  1022.9hPa Calm     91% 0in /  0.0mm 0.00 W/m2
02:50 45.9 °F /  7.7 °C 43.7 °F /  6.5 °C 30.2in /  1022.9hPa Calm     92% 0in /  0.0mm 0.00 W/m2
02:55 45.9 °F /  7.7 °C 43.7 °F /  6.5 °C 30.2in /  1022.9hPa Calm     92% 0in /  0.0mm 0.00 W/m2
03:00 45.7 °F /  7.6 °C 43.5 °F /  6.4 °C 30.2in /  1022.9hPa Calm     92% 0in /  0.0mm 0.00 W/m2
03:05 45.9 °F /  7.7 °C 43.7 °F /  6.5 °C 30.2in /  1022.9hPa Calm     92% 0in /  0.0mm 0.00 W/m2
03:10 45.9 °F /  7.7 °C 43.7 °F /  6.5 °C 30.2in /  1022.9hPa Calm     92% 0in /  0.0mm 0.00 W/m2
03:15 46 °F /  7.8 °C 43.9 °F /  6.6 °C 30.2in /  1022.9hPa Calm     92% 0in /  0.0mm 0.00 W/m2
03:20 46 °F /  7.8 °C 43.9 °F /  6.6 °C 30.2in /  1022.9hPa Calm     92% 0in /  0.0mm 0.00 W/m2
03:25 46 °F /  7.8 °C 43.9 °F /  6.6 °C 30.2in /  1022.9hPa Calm     92% 0in /  0.0mm 0.00 W/m2
03:30 46 °F /  7.8 °C 43.9 °F /  6.6 °C 30.2in /  1022.9hPa Calm     92% 0in /  0.0mm 0.00 W/m2
03:35 46.2 °F /  7.9 °C 44.1 °F /  6.7 °C 30.2in /  1022.9hPa Calm     92% 0in /  0.0mm 0.00 W/m2
03:40 46.2 °F /  7.9 °C 44.1 °F /  6.7 °C 30.2in /  1022.9hPa Calm     92% 0in /  0.0mm 0.00 W/m2
03:45 46.2 °F /  7.9 °C 44.1 °F /  6.7 °C 30.2in /  1022.6hPa Calm     92% 0in /  0.0mm 0.00 W/m2
03:50 46.2 °F /  7.9 °C 44.1 °F /  6.7 °C 30.2in /  1022.6hPa Calm     92% 0in /  0.0mm 0.00 W/m2
03:55 46.4 °F /  8.0 °C 44.2 °F /  6.8 °C 30.2in /  1022.6hPa Calm     92% 0in /  0.0mm 0.00 W/m2
04:00 46.4 °F /  8.0 °C 44.2 °F /  6.8 °C 30.2in /  1022.6hPa Calm     92% 0in /  0.0mm 0.00 W/m2
04:05 46.4 °F /  8.0 °C 44.2 °F /  6.8 °C 30.2in /  1022.6hPa Calm     92% 0in /  0.0mm 0.00 W/m2
04:10 46.4 °F /  8.0 °C 44.2 °F /  6.8 °C 30.2in /  1022.6hPa Calm     92% 0in /  0.0mm 0.00 W/m2
04:15 46.4 °F /  8.0 °C 44.2 °F /  6.8 °C 30.2in /  1022.6hPa Calm     92% 0in /  0.0mm 0.00 W/m2
04:20 46.4 °F /  8.0 °C 44.2 °F /  6.8 °C 30.2in /  1022.6hPa Calm     92% 0in /  0.0mm 0.00 W/m2
04:25 46.4 °F /  8.0 °C 44.2 °F /  6.8 °C 30.2in /  1022.6hPa Calm     92% 0in /  0.0mm 0.00 W/m2
04:30 46.4 °F /  8.0 °C 44.2 °F /  6.8 °C 30.2in /  1022.6hPa Calm     92% 0in /  0.0mm 0.00 W/m2
04:35 46.4 °F /  8.0 °C 44.2 °F /  6.8 °C 30.2in /  1022.6hPa Calm     92% 0in /  0.0mm 0.00 W/m2
04:40 46.4 °F /  8.0 °C 44.2 °F /  6.8 °C 30.2in /  1022.6hPa Calm     92% 0in /  0.0mm 0.00 W/m2
04:45 46.4 °F /  8.0 °C 44.2 °F /  6.8 °C 30.2in /  1022.6hPa Calm     92% 0in /  0.0mm 0.00 W/m2
04:50 46.4 °F /  8.0 °C 44.2 °F /  6.8 °C 30.2in /  1022.6hPa Calm     92% 0in /  0.0mm 0.00 W/m2
04:55 46.4 °F /  8.0 °C 44.2 °F /  6.8 °C 30.2in /  1022.6hPa Calm     92% 0in /  0.0mm 0.00 W/m2
05:00 46.2 °F /  7.9 °C 44.1 °F /  6.7 °C 30.2in /  1022.9hPa NNW 0.9mph /  1.4km/h 2mph /  3.2km/h 92% 0in /  0.0mm 0.00 W/m2
05:05 46.2 °F /  7.9 °C 44.2 °F /  6.8 °C 30.2in /  1022.9hPa NNW 0.9mph /  1.4km/h 3mph /  4.8km/h 93% 0in /  0.0mm 0.00 W/m2
05:10 46.2 °F /  7.9 °C 44.2 °F /  6.8 °C 30.2in /  1022.9hPa Calm     93% 0in /  0.0mm 0.00 W/m2
05:15 46.2 °F /  7.9 °C 44.2 °F /  6.8 °C 30.2in /  1022.9hPa Calm   1mph /  1.6km/h 93% 0in /  0.0mm 0.00 W/m2
05:20 46.2 °F /  7.9 °C 44.2 °F /  6.8 °C 30.2in /  1022.9hPa Calm     93% 0in /  0.0mm 0.00 W/m2
05:25 46.2 °F /  7.9 °C 44.2 °F /  6.8 °C 30.2in /  1022.9hPa Calm   1mph /  1.6km/h 93% 0in /  0.0mm 0.00 W/m2
05:30 46.2 °F /  7.9 °C 44.2 °F /  6.8 °C 30.2in /  1022.9hPa Calm     93% 0in /  0.0mm 0.00 W/m2
05:35 46.2 °F /  7.9 °C 44.2 °F /  6.8 °C 30.2in /  1022.9hPa Calm     93% 0in /  0.0mm 0.00 W/m2
05:40 46.2 °F /  7.9 °C 44.2 °F /  6.8 °C 30.2in /  1022.9hPa Calm     93% 0in /  0.0mm 0.00 W/m2
05:45 46.2 °F /  7.9 °C 44.2 °F /  6.8 °C 30.2in /  1023.2hPa Calm     93% 0in /  0.0mm 0.00 W/m2
05:50 46 °F /  7.8 °C 44.1 °F /  6.7 °C 30.2in /  1022.9hPa Calm     93% 0in /  0.0mm 0.00 W/m2
05:55 46 °F /  7.8 °C 44.1 °F /  6.7 °C 30.2in /  1023.2hPa Calm     93% 0in /  0.0mm 0.00 W/m2
06:00 46 °F /  7.8 °C 44.1 °F /  6.7 °C 30.2in /  1022.9hPa Calm     93% 0in /  0.0mm 0.00 W/m2
06:05 46 °F /  7.8 °C 44.1 °F /  6.7 °C 30.2in /  1022.9hPa Calm     93% 0in /  0.0mm 0.00 W/m2
06:10 46 °F /  7.8 °C 44.1 °F /  6.7 °C 30.2in /  1022.9hPa Calm     93% 0in /  0.0mm 0.00 W/m2
06:15 46 °F /  7.8 °C 44.1 °F /  6.7 °C 30.2in /  1023.2hPa Calm     93% 0in /  0.0mm 0.00 W/m2
06:20 46 °F /  7.8 °C 44.1 °F /  6.7 °C 30.2in /  1023.2hPa Calm     93% 0in /  0.0mm 0.00 W/m2
06:25 46.2 °F /  7.9 °C 44.2 °F /  6.8 °C 30.2in /  1023.2hPa Calm     93% 0in /  0.0mm 0.00 W/m2
06:30 46.2 °F /  7.9 °C 44.2 °F /  6.8 °C 30.2in /  1023.2hPa Calm     93% 0in /  0.0mm 0.00 W/m2
06:35 46.2 °F /  7.9 °C 44.2 °F /  6.8 °C 30.2in /  1023.2hPa Calm     93% 0in /  0.0mm 0.00 W/m2
06:40 46.2 °F /  7.9 °C 44.2 °F /  6.8 °C 30.2in /  1023.2hPa Calm     93% 0in /  0.0mm 0.00 W/m2
06:45 46.2 °F /  7.9 °C 44.2 °F /  6.8 °C 30.2in /  1023.2hPa Calm     93% 0in /  0.0mm 0.00 W/m2
06:50 46.2 °F /  7.9 °C 44.2 °F /  6.8 °C 30.2in /  1023.2hPa Calm     93% 0in /  0.0mm 0.00 W/m2
06:55 46 °F /  7.8 °C 44.1 °F /  6.7 °C 30.2in /  1023.2hPa Calm     93% 0in /  0.0mm 0.00 W/m2
07:00 46.2 °F /  7.9 °C 44.2 °F /  6.8 °C 30.2in /  1023.2hPa Calm     93% 0in /  0.0mm 0.00 W/m2
07:05 46.2 °F /  7.9 °C 44.2 °F /  6.8 °C 30.2in /  1023.2hPa Calm     93% 0in /  0.0mm 0.00 W/m2
07:10 46.2 °F /  7.9 °C 44.2 °F /  6.8 °C 30.2in /  1023.2hPa Calm   1mph /  1.6km/h 93% 0in /  0.0mm 0.00 W/m2
07:15 46.2 °F /  7.9 °C 44.2 °F /  6.8 °C 30.2in /  1023.2hPa Calm     93% 0in /  0.0mm 0.00 W/m2
07:20 46.2 °F /  7.9 °C 44.2 °F /  6.8 °C 30.2in /  1023.2hPa Calm     93% 0in /  0.0mm 0.00 W/m2
07:25 46.2 °F /  7.9 °C 44.2 °F /  6.8 °C 30.2in /  1023.2hPa Calm     93% 0in /  0.0mm 0.00 W/m2
07:30 46.2 °F /  7.9 °C 44.2 °F /  6.8 °C 30.2in /  1023.2hPa Calm     93% 0in /  0.0mm 0.00 W/m2
07:35 46.2 °F /  7.9 °C 44.2 °F /  6.8 °C 30.2in /  1023.2hPa Calm     93% 0in /  0.0mm 0.00 W/m2
07:40 46.2 °F /  7.9 °C 44.2 °F /  6.8 °C 30.2in /  1023.2hPa Calm     93% 0in /  0.0mm 0.00 W/m2
07:45 46.4 °F /  8.0 °C 44.4 °F /  6.9 °C 30.2in /  1023.2hPa Calm     93% 0in /  0.0mm 0.00 W/m2
07:50 46.4 °F /  8.0 °C 44.8 °F /  7.1 °C 30.2in /  1023.2hPa Calm     94% 0in /  0.0mm 5.00 W/m2
07:55 46.6 °F /  8.1 °C 45 °F /  7.2 °C 30.2in /  1023.2hPa Calm   1mph /  1.6km/h 94% 0in /  0.0mm 7.00 W/m2
08:00 46.6 °F /  8.1 °C 45 °F /  7.2 °C 30.2in /  1023.2hPa Calm     94% 0in /  0.0mm 9.00 W/m2
08:05 46.8 °F /  8.2 °C 45.1 °F /  7.3 °C 30.2in /  1023.2hPa Calm     94% 0in /  0.0mm 12.00 W/m2
08:10 46.6 °F /  8.1 °C 45 °F /  7.2 °C 30.2in /  1023.2hPa Calm     94% 0in /  0.0mm 16.00 W/m2
08:15 46.4 °F /  8.0 °C 44.4 °F /  6.9 °C 30.2in /  1023.6hPa Calm     93% 0in /  0.0mm 16.00 W/m2
08:20 46.6 °F /  8.1 °C 45 °F /  7.2 °C 30.2in /  1023.6hPa Calm     94% 0in /  0.0mm 18.00 W/m2
08:25 46.8 °F /  8.2 °C 45.1 °F /  7.3 °C 30.2in /  1023.6hPa Calm     94% 0in /  0.0mm 21.00 W/m2
08:30 46.6 °F /  8.1 °C 45 °F /  7.2 °C 30.2in /  1023.6hPa Calm     94% 0in /  0.0mm 21.00 W/m2
08:35 46.8 °F /  8.2 °C 45.1 °F /  7.3 °C 30.2in /  1023.6hPa Calm     94% 0in /  0.0mm 21.00 W/m2
08:40 46.9 °F /  8.3 °C 45.3 °F /  7.4 °C 30.2in /  1023.6hPa Calm     94% 0in /  0.0mm 25.00 W/m2
08:45 47.3 °F /  8.5 °C 45.7 °F /  7.6 °C 30.2in /  1023.6hPa Calm     94% 0in /  0.0mm 26.00 W/m2
08:50 47.3 °F /  8.5 °C 45.7 °F /  7.6 °C 30.2in /  1023.9hPa Calm     94% 0in /  0.0mm 26.00 W/m2
08:55 47.5 °F /  8.6 °C 45.9 °F /  7.7 °C 30.2in /  1023.9hPa NNW 1mph /  1.6km/h 1mph /  1.6km/h 94% 0in /  0.0mm 28.00 W/m2
09:00 47.5 °F /  8.6 °C 45.9 °F /  7.7 °C 30.2in /  1023.9hPa Calm     94% 0in /  0.0mm 30.00 W/m2
09:05 47.8 °F /  8.8 °C 46.2 °F /  7.9 °C 30.2in /  1023.9hPa Calm     94% 0in /  0.0mm 28.00 W/m2
09:10 47.8 °F /  8.8 °C 46.2 °F /  7.9 °C 30.2in /  1023.9hPa Calm     94% 0in /  0.0mm 35.00 W/m2
09:15 47.8 °F /  8.8 °C 46.2 °F /  7.9 °C 30.2in /  1023.9hPa Calm     94% 0in /  0.0mm 40.00 W/m2
09:20 47.7 °F /  8.7 °C 46 °F /  7.8 °C 30.2in /  1023.9hPa Calm     94% 0in /  0.0mm 44.00 W/m2
09:25 47.8 °F /  8.8 °C 46.2 °F /  7.9 °C 30.2in /  1023.9hPa Calm     94% 0in /  0.0mm 53.00 W/m2
09:30 47.8 °F /  8.8 °C 46.2 °F /  7.9 °C 30.2in /  1023.9hPa Calm     94% 0in /  0.0mm 62.00 W/m2
09:35 48 °F /  8.9 °C 46.4 °F /  8.0 °C 30.2in /  1023.9hPa Calm     94% 0in /  0.0mm 65.00 W/m2
09:40 48.6 °F /  9.2 °C 46.9 °F /  8.3 °C 30.3in /  1024.3hPa Calm     94% 0in /  0.0mm 77.00 W/m2
09:45 48.7 °F /  9.3 °C 47.1 °F /  8.4 °C 30.3in /  1024.3hPa Calm     94% 0in /  0.0mm 84.00 W/m2
09:50 49.3 °F /  9.6 °C 47.7 °F /  8.7 °C 30.2in /  1023.9hPa Calm     94% 0in /  0.0mm 100.00 W/m2
09:55 49.5 °F /  9.7 °C 47.8 °F /  8.8 °C 30.2in /  1023.9hPa Calm     94% 0in /  0.0mm 118.00 W/m2
10:00 49.5 °F /  9.7 °C 47.8 °F /  8.8 °C 30.2in /  1023.9hPa Calm     94% 0in /  0.0mm 144.00 W/m2
10:05 49.8 °F /  9.9 °C 47.8 °F /  8.8 °C 30.2in /  1023.9hPa Calm     93% 0in /  0.0mm 214.00 W/m2
10:10 50.7 °F /  10.4 °C 48.6 °F /  9.2 °C 30.2in /  1023.9hPa Calm     92% 0in /  0.0mm 195.00 W/m2
10:15 51.8 °F /  11.0 °C 48.9 °F /  9.4 °C 30.2in /  1023.9hPa Calm     90% 0in /  0.0mm 200.00 W/m2
10:20 51.6 °F /  10.9 °C 47.8 °F /  8.8 °C 30.2in /  1023.9hPa Calm   1mph /  1.6km/h 87% 0in /  0.0mm 214.00 W/m2
10:25 52.2 °F /  11.2 °C 47.8 °F /  8.8 °C 30.2in /  1023.9hPa Calm     85% 0in /  0.0mm 223.00 W/m2
10:30 53.1 °F /  11.7 °C 48.4 °F /  9.1 °C 30.2in /  1023.9hPa Calm     84% 0in /  0.0mm 236.00 W/m2
10:35 52.7 °F /  11.5 °C 47.3 °F /  8.5 °C 30.2in /  1023.6hPa NNW 0.9mph /  1.4km/h 1mph /  1.6km/h 82% 0in /  0.0mm 248.00 W/m2
10:40 53.8 °F /  12.1 °C 48.7 °F /  9.3 °C 30.2in /  1023.9hPa Calm   1mph /  1.6km/h 83% 0in /  0.0mm 262.00 W/m2
10:45 54.3 °F /  12.4 °C 48.2 °F /  9.0 °C 30.2in /  1023.6hPa NW 5mph /  8.0km/h 5mph /  8.0km/h 80% 0in /  0.0mm 272.00 W/m2
10:50 53.6 °F /  12.0 °C 47.7 °F /  8.7 °C 30.2in /  1023.6hPa WNW 0.9mph /  1.4km/h 2mph /  3.2km/h 80% 0in /  0.0mm 285.00 W/m2
10:55 53.8 °F /  12.1 °C 47.5 °F /  8.6 °C 30.2in /  1023.9hPa Calm   1mph /  1.6km/h 79% 0in /  0.0mm 276.00 W/m2
11:00 54.9 °F /  12.7 °C 47.8 °F /  8.8 °C 30.2in /  1023.9hPa WNW 0.9mph /  1.4km/h 4mph /  6.4km/h 77% 0in /  0.0mm 274.00 W/m2
11:05 54.7 °F /  12.6 °C 47.7 °F /  8.7 °C 30.2in /  1023.9hPa Calm   2mph /  3.2km/h 77% 0in /  0.0mm 309.00 W/m2
11:10 54.9 °F /  12.7 °C 47.8 °F /  8.8 °C 30.2in /  1023.6hPa Calm     77% 0in /  0.0mm 320.00 W/m2
11:15 55 °F /  12.8 °C 47.7 °F /  8.7 °C 30.2in /  1023.6hPa Calm   1mph /  1.6km/h 76% 0in /  0.0mm 332.00 W/m2
11:20 56.1 °F /  13.4 °C 48.4 °F /  9.1 °C 30.2in /  1023.6hPa Calm   2mph /  3.2km/h 75% 0in /  0.0mm 343.00 W/m2
11:25 57.4 °F /  14.1 °C 49.1 °F /  9.5 °C 30.2in /  1023.6hPa Calm     74% 0in /  0.0mm 350.00 W/m2
11:30 55.9 °F /  13.3 °C 47.5 °F /  8.6 °C 30.2in /  1023.2hPa Calm   5mph /  8.0km/h 73% 0in /  0.0mm 359.00 W/m2
11:35 56.5 °F /  13.6 °C 47.1 °F /  8.4 °C 30.2in /  1023.6hPa Calm   1mph /  1.6km/h 71% 0in /  0.0mm 367.00 W/m2
11:40 56.8 °F /  13.8 °C 46.8 °F /  8.2 °C 30.2in /  1023.6hPa West 2mph /  3.2km/h 5mph /  8.0km/h 69% 0in /  0.0mm 373.00 W/m2
11:45 56.3 °F /  13.5 °C 45.9 °F /  7.7 °C 30.2in /  1023.6hPa SW 4.9mph /  7.9km/h 8mph /  12.9km/h 68% 0in /  0.0mm 380.00 W/m2
11:50 56.3 °F /  13.5 °C 46.2 °F /  7.9 °C 30.2in /  1023.6hPa SW 2.9mph /  4.7km/h 4mph /  6.4km/h 69% 0in /  0.0mm 388.00 W/m2
11:55 57 °F /  13.9 °C 46.9 °F /  8.3 °C 30.2in /  1023.6hPa SW 7mph /  11.3km/h 7mph /  11.3km/h 69% 0in /  0.0mm 390.00 W/m2
12:00 57.6 °F /  14.2 °C 46.8 °F /  8.2 °C 30.2in /  1023.6hPa SW 0.9mph /  1.4km/h 4mph /  6.4km/h 67% 0in /  0.0mm 401.00 W/m2
12:05 58.3 °F /  14.6 °C 46.6 °F /  8.1 °C 30.2in /  1023.6hPa SW 4mph /  6.4km/h 6mph /  9.7km/h 65% 0in /  0.0mm 410.00 W/m2
12:10 57.7 °F /  14.3 °C 46.4 °F /  8.0 °C 30.2in /  1023.9hPa SW 4mph /  6.4km/h 10mph /  16.1km/h 66% 0in /  0.0mm 323.00 W/m2
12:15 58.1 °F /  14.5 °C 47.1 °F /  8.4 °C 30.2in /  1023.6hPa SW 4mph /  6.4km/h 9mph /  14.5km/h 67% 0in /  0.0mm 422.00 W/m2
12:20 58.1 °F /  14.5 °C 46.8 °F /  8.2 °C 30.2in /  1023.6hPa WSW 4mph /  6.4km/h 11mph /  17.7km/h 66% 0in /  0.0mm 422.00 W/m2
12:25 57.9 °F /  14.4 °C 46.6 °F /  8.1 °C 30.2in /  1023.6hPa West 4.9mph /  7.9km/h 9mph /  14.5km/h 66% 0in /  0.0mm 422.00 W/m2
12:30 57.9 °F /  14.4 °C 47.5 °F /  8.6 °C 30.2in /  1023.6hPa WSW 2mph /  3.2km/h 7mph /  11.3km/h 68% 0in /  0.0mm 424.00 W/m2
12:35 58.5 °F /  14.7 °C 48 °F /  8.9 °C 30.2in /  1023.6hPa SSW 2.9mph /  4.7km/h 7mph /  11.3km/h 68% 0in /  0.0mm 432.00 W/m2
12:40 58.5 °F /  14.7 °C 47.1 °F /  8.4 °C 30.2in /  1023.6hPa West 4mph /  6.4km/h 7mph /  11.3km/h 66% 0in /  0.0mm 436.00 W/m2
12:45 58.3 °F /  14.6 °C 46.9 °F /  8.3 °C 30.2in /  1023.6hPa West 11mph /  17.7km/h 11mph /  17.7km/h 66% 0in /  0.0mm 438.00 W/m2
12:50 58.6 °F /  14.8 °C 48.2 °F /  9.0 °C 30.2in /  1023.6hPa SSW 6mph /  9.7km/h 7mph /  11.3km/h 68% 0in /  0.0mm 445.00 W/m2
12:55 59.9 °F /  15.5 °C 49.3 °F /  9.6 °C 30.2in /  1023.6hPa SSW 2mph /  3.2km/h 8mph /  12.9km/h 68% 0in /  0.0mm 450.00 W/m2
13:00 58.5 °F /  14.7 °C 47.5 °F /  8.6 °C 30.2in /  1023.6hPa SSW 0.9mph /  1.4km/h 10mph /  16.1km/h 67% 0in /  0.0mm 225.00 W/m2
13:05 58.1 °F /  14.5 °C 47.1 °F /  8.4 °C 30.2in /  1023.6hPa SSW 6.9mph /  11.1km/h 9mph /  14.5km/h 67% 0in /  0.0mm 216.00 W/m2
13:10 57.9 °F /  14.4 °C 47.5 °F /  8.6 °C 30.2in /  1023.6hPa SSW 2mph /  3.2km/h 5mph /  8.0km/h 68% 0in /  0.0mm 272.00 W/m2
13:15 57.9 °F /  14.4 °C 47.8 °F /  8.8 °C 30.2in /  1023.2hPa Calm   6mph /  9.7km/h 69% 0in /  0.0mm 339.00 W/m2
13:20 58.5 °F /  14.7 °C 48.4 °F /  9.1 °C 30.2in /  1023.2hPa WSW 4.9mph /  7.9km/h 5mph /  8.0km/h 69% 0in /  0.0mm 555.00 W/m2
13:25 58.6 °F /  14.8 °C 48.2 °F /  9.0 °C 30.2in /  1023.2hPa SW 2mph /  3.2km/h 8mph /  12.9km/h 68% 0in /  0.0mm 555.00 W/m2
13:30 58.6 °F /  14.8 °C 48.2 °F /  9.0 °C 30.2in /  1023.2hPa West 4mph /  6.4km/h 7mph /  11.3km/h 68% 0in /  0.0mm 452.00 W/m2
13:35 58.6 °F /  14.8 °C 47.7 °F /  8.7 °C 30.2in /  1022.9hPa West 2.9mph /  4.7km/h 6mph /  9.7km/h 67% 0in /  0.0mm 431.00 W/m2
13:40 58.6 °F /  14.8 °C 47.3 °F /  8.5 °C 30.2in /  1022.9hPa SW 4.9mph /  7.9km/h 8mph /  12.9km/h 66% 0in /  0.0mm 427.00 W/m2
13:45 58.6 °F /  14.8 °C 47.7 °F /  8.7 °C 30.2in /  1022.9hPa WSW 2.9mph /  4.7km/h 6mph /  9.7km/h 67% 0in /  0.0mm 390.00 W/m2
13:50 58.6 °F /  14.8 °C 46.9 °F /  8.3 °C 30.2in /  1022.9hPa SW 0.9mph /  1.4km/h 8mph /  12.9km/h 65% 0in /  0.0mm 452.00 W/m2
13:55 58.5 °F /  14.7 °C 47.1 °F /  8.4 °C 30.2in /  1022.9hPa West 4.9mph /  7.9km/h 7mph /  11.3km/h 66% 0in /  0.0mm 186.00 W/m2
14:00 58.3 °F /  14.6 °C 46.9 °F /  8.3 °C 30.2in /  1022.6hPa SW 2mph /  3.2km/h 7mph /  11.3km/h 66% 0in /  0.0mm 438.00 W/m2
14:05 58.8 °F /  14.9 °C 47.5 °F /  8.6 °C 30.2in /  1022.6hPa SW 4mph /  6.4km/h 6mph /  9.7km/h 66% 0in /  0.0mm 411.00 W/m2
14:10 59 °F /  15.0 °C 47.3 °F /  8.5 °C 30.2in /  1022.6hPa WSW 2mph /  3.2km/h 7mph /  11.3km/h 65% 0in /  0.0mm 408.00 W/m2
14:15 59.7 °F /  15.4 °C 47.5 °F /  8.6 °C 30.2in /  1022.6hPa SW 6mph /  9.7km/h 6mph /  9.7km/h 64% 0in /  0.0mm 406.00 W/m2
14:20 59.7 °F /  15.4 °C 48 °F /  8.9 °C 30.2in /  1022.6hPa WSW 2.9mph /  4.7km/h 6mph /  9.7km/h 65% 0in /  0.0mm 403.00 W/m2
14:25 59.7 °F /  15.4 °C 47.1 °F /  8.4 °C 30.2in /  1022.6hPa SW 4mph /  6.4km/h 5mph /  8.0km/h 63% 0in /  0.0mm 396.00 W/m2
14:30 59.7 °F /  15.4 °C 46.8 °F /  8.2 °C 30.2in /  1022.6hPa SW 9mph /  14.5km/h 9mph /  14.5km/h 62% 0in /  0.0mm 390.00 W/m2
14:35 59.5 °F /  15.3 °C 46.9 °F /  8.3 °C 30.2in /  1022.6hPa WSW 2mph /  3.2km/h 6mph /  9.7km/h 63% 0in /  0.0mm 388.00 W/m2
14:40 60.1 °F /  15.6 °C 46.9 °F /  8.3 °C 30.2in /  1022.2hPa SW 4.9mph /  7.9km/h 6mph /  9.7km/h 62% 0in /  0.0mm 232.00 W/m2
14:45 59.5 °F /  15.3 °C 46.9 °F /  8.3 °C 30.2in /  1022.6hPa WSW 2.9mph /  4.7km/h 6mph /  9.7km/h 63% 0in /  0.0mm 128.00 W/m2
14:50 58.6 °F /  14.8 °C 46 °F /  7.8 °C 30.2in /  1022.2hPa West 0.9mph /  1.4km/h 9mph /  14.5km/h 63% 0in /  0.0mm 151.00 W/m2
14:55 58.1 °F /  14.5 °C 46.4 °F /  8.0 °C 30.2in /  1022.2hPa WSW 8.1mph /  13.0km/h 8mph /  12.9km/h 65% 0in /  0.0mm 139.00 W/m2
15:05 58.1 °F /  14.5 °C 47.7 °F /  8.7 °C 30.2in /  1022.2hPa West 0.9mph /  1.4km/h 4mph /  6.4km/h 68% 0in /  0.0mm 162.00 W/m2
15:10 57.9 °F /  14.4 °C 47.5 °F /  8.6 °C 30.2in /  1022.2hPa Calm   5mph /  8.0km/h 68% 0in /  0.0mm 151.00 W/m2
15:15 57.7 °F /  14.3 °C 47.7 °F /  8.7 °C 30.2in /  1022.2hPa SW 8mph /  12.9km/h 8mph /  12.9km/h 69% 0in /  0.0mm 155.00 W/m2
15:20 57.6 °F /  14.2 °C 47.8 °F /  8.8 °C 30.2in /  1022.2hPa West 4mph /  6.4km/h 7mph /  11.3km/h 70% 0in /  0.0mm 134.00 W/m2
15:25 57.6 °F /  14.2 °C 47.8 °F /  8.8 °C 30.2in /  1022.2hPa West 4mph /  6.4km/h 4mph /  6.4km/h 70% 0in /  0.0mm 123.00 W/m2
15:30 57.6 °F /  14.2 °C 47.8 °F /  8.8 °C 30.2in /  1022.2hPa West 6mph /  9.7km/h 7mph /  11.3km/h 70% 0in /  0.0mm 123.00 W/m2
15:35 57.4 °F /  14.1 °C 47.3 °F /  8.5 °C 30.2in /  1022.2hPa SSW 0.9mph /  1.4km/h 7mph /  11.3km/h 69% 0in /  0.0mm 105.00 W/m2
15:40 57 °F /  13.9 °C 46.6 °F /  8.1 °C 30.2in /  1022.2hPa SW 0.9mph /  1.4km/h 8mph /  12.9km/h 68% 0in /  0.0mm 93.00 W/m2
15:45 57 °F /  13.9 °C 46.6 °F /  8.1 °C 30.2in /  1022.2hPa SW 2.9mph /  4.7km/h 8mph /  12.9km/h 68% 0in /  0.0mm 90.00 W/m2
15:50 57 °F /  13.9 °C 46.6 °F /  8.1 °C 30.2in /  1021.9hPa WSW 2mph /  3.2km/h 6mph /  9.7km/h 68% 0in /  0.0mm 97.00 W/m2
15:55 57 °F /  13.9 °C 46.9 °F /  8.3 °C 30.2in /  1021.9hPa WSW 2mph /  3.2km/h 4mph /  6.4km/h 69% 0in /  0.0mm 84.00 W/m2
16:00 56.8 °F /  13.8 °C 46.4 °F /  8.0 °C 30.2in /  1021.9hPa WSW 2.9mph /  4.7km/h 6mph /  9.7km/h 68% 0in /  0.0mm 83.00 W/m2
16:05 56.8 °F /  13.8 °C 46.4 °F /  8.0 °C 30.2in /  1021.9hPa WSW 2mph /  3.2km/h 4mph /  6.4km/h 68% 0in /  0.0mm 72.00 W/m2
16:10 56.8 °F /  13.8 °C 46.8 °F /  8.2 °C 30.2in /  1021.9hPa WSW 2.9mph /  4.7km/h 4mph /  6.4km/h 69% 0in /  0.0mm 63.00 W/m2
16:15 56.7 °F /  13.7 °C 46.6 °F /  8.1 °C 30.2in /  1021.9hPa Calm   4mph /  6.4km/h 69% 0in /  0.0mm 51.00 W/m2
16:20 56.8 °F /  13.8 °C 47.1 °F /  8.4 °C 30.2in /  1021.9hPa WSW 0.9mph /  1.4km/h 3mph /  4.8km/h 70% 0in /  0.0mm 47.00 W/m2
16:25 56.8 °F /  13.8 °C 47.1 °F /  8.4 °C 30.2in /  1021.9hPa Calm   3mph /  4.8km/h 70% 0in /  0.0mm 44.00 W/m2
16:30 56.7 °F /  13.7 °C 47.3 °F /  8.5 °C 30.2in /  1021.9hPa Calm   1mph /  1.6km/h 71% 0in /  0.0mm 46.00 W/m2
16:35 56.8 °F /  13.8 °C 47.8 °F /  8.8 °C 30.2in /  1021.9hPa Calm   3mph /  4.8km/h 72% 0in /  0.0mm 40.00 W/m2
16:40 56.8 °F /  13.8 °C 47.8 °F /  8.8 °C 30.2in /  1021.9hPa Calm     72% 0in /  0.0mm 42.00 W/m2
16:45 56.8 °F /  13.8 °C 47.8 °F /  8.8 °C 30.2in /  1021.9hPa Calm     72% 0in /  0.0mm 51.00 W/m2
16:50 57 °F /  13.9 °C 48 °F /  8.9 °C 30.2in /  1021.6hPa WSW 3mph /  4.8km/h 3mph /  4.8km/h 72% 0in /  0.0mm 51.00 W/m2
16:55 56.7 °F /  13.7 °C 47.7 °F /  8.7 °C 30.2in /  1021.6hPa Calm   2mph /  3.2km/h 72% 0in /  0.0mm 69.00 W/m2
17:00 56.7 °F /  13.7 °C 48 °F /  8.9 °C 30.2in /  1021.6hPa Calm     73% 0in /  0.0mm 63.00 W/m2
17:05 56.8 °F /  13.8 °C 48.2 °F /  9.0 °C 30.2in /  1021.6hPa WSW 0.9mph /  1.4km/h 2mph /  3.2km/h 73% 0in /  0.0mm 62.00 W/m2
17:10 57 °F /  13.9 °C 48.4 °F /  9.1 °C 30.2in /  1021.6hPa Calm     73% 0in /  0.0mm 74.00 W/m2
17:15 57.4 °F /  14.1 °C 48.7 °F /  9.3 °C 30.2in /  1021.2hPa WSW 0.9mph /  1.4km/h 2mph /  3.2km/h 73% 0in /  0.0mm 62.00 W/m2
17:20 57.2 °F /  14.0 °C 48.6 °F /  9.2 °C 30.2in /  1021.2hPa WSW 2.9mph /  4.7km/h 3mph /  4.8km/h 73% 0in /  0.0mm 63.00 W/m2
17:25 57 °F /  13.9 °C 48.4 °F /  9.1 °C 30.2in /  1021.6hPa Calm     73% 0in /  0.0mm 49.00 W/m2
17:30 56.8 °F /  13.8 °C 47.8 °F /  8.8 °C 30.2in /  1021.6hPa Calm   2mph /  3.2km/h 72% 0in /  0.0mm 37.00 W/m2
17:35 56.8 °F /  13.8 °C 48.2 °F /  9.0 °C 30.2in /  1021.2hPa Calm   1mph /  1.6km/h 73% 0in /  0.0mm 30.00 W/m2
17:40 57 °F /  13.9 °C 48.4 °F /  9.1 °C 30.2in /  1021.6hPa Calm   1mph /  1.6km/h 73% 0in /  0.0mm 25.00 W/m2
17:45 56.8 °F /  13.8 °C 48.2 °F /  9.0 °C 30.2in /  1021.6hPa Calm     73% 0in /  0.0mm 19.00 W/m2
17:50 56.5 °F /  13.6 °C 48 °F /  8.9 °C 30.2in /  1021.6hPa Calm   2mph /  3.2km/h 73% 0in /  0.0mm 18.00 W/m2
17:55 56.5 °F /  13.6 °C 48 °F /  8.9 °C 30.2in /  1021.6hPa Calm   1mph /  1.6km/h 73% 0in /  0.0mm 7.00 W/m2
18:00 56.5 °F /  13.6 °C 48.4 °F /  9.1 °C 30.2in /  1021.6hPa Calm     74% 0in /  0.0mm 5.00 W/m2
18:05 56.7 °F /  13.7 °C 48.4 °F /  9.1 °C 30.2in /  1021.6hPa Calm     74% 0in /  0.0mm 0.00 W/m2
18:10 56.5 °F /  13.6 °C 48.7 °F /  9.3 °C 30.2in /  1021.6hPa Calm     75% 0in /  0.0mm 0.00 W/m2
18:15 56.1 °F /  13.4 °C 48.4 °F /  9.1 °C 30.2in /  1021.6hPa Calm     75% 0in /  0.0mm 0.00 W/m2
18:20 55.9 °F /  13.3 °C 48.2 °F /  9.0 °C 30.2in /  1021.2hPa Calm     75% 0in /  0.0mm 0.00 W/m2
18:25 55.6 °F /  13.1 °C 47.8 °F /  8.8 °C 30.2in /  1021.2hPa Calm     75% 0in /  0.0mm 0.00 W/m2
18:30 55.4 °F /  13.0 °C 48 °F /  8.9 °C 30.2in /  1021.2hPa Calm     76% 0in /  0.0mm 0.00 W/m2
18:35 55.2 °F /  12.9 °C 47.8 °F /  8.8 °C 30.2in /  1021.6hPa Calm     76% 0in /  0.0mm 0.00 W/m2
18:40 55 °F /  12.8 °C 47.7 °F /  8.7 °C 30.2in /  1021.6hPa Calm     76% 0in /  0.0mm 0.00 W/m2
18:45 54.9 °F /  12.7 °C 47.5 °F /  8.6 °C 30.2in /  1021.6hPa Calm     76% 0in /  0.0mm 0.00 W/m2
18:50 54.9 °F /  12.7 °C 47.8 °F /  8.8 °C 30.2in /  1021.6hPa Calm     77% 0in /  0.0mm 0.00 W/m2
18:55 54.7 °F /  12.6 °C 47.7 °F /  8.7 °C 30.2in /  1021.6hPa Calm     77% 0in /  0.0mm 0.00 W/m2
19:00 54.5 °F /  12.5 °C 47.5 °F /  8.6 °C 30.2in /  1021.6hPa Calm     77% 0in /  0.0mm 0.00 W/m2
19:05 54.3 °F /  12.4 °C 47.3 °F /  8.5 °C 30.2in /  1021.6hPa Calm     77% 0in /  0.0mm 0.00 W/m2
19:10 54 °F /  12.2 °C 47.3 °F /  8.5 °C 30.2in /  1021.2hPa Calm     78% 0in /  0.0mm 0.00 W/m2
19:15 53.4 °F /  11.9 °C 47.1 °F /  8.4 °C 30.2in /  1021.2hPa Calm     79% 0in /  0.0mm 0.00 W/m2
19:20 53.1 °F /  11.7 °C 46.8 °F /  8.2 °C 30.2in /  1021.2hPa Calm     79% 0in /  0.0mm 0.00 W/m2
19:25 52.9 °F /  11.6 °C 46.9 °F /  8.3 °C 30.2in /  1021.2hPa Calm     80% 0in /  0.0mm 0.00 W/m2
19:30 52.5 °F /  11.4 °C 46.9 °F /  8.3 °C 30.2in /  1021.2hPa Calm     81% 0in /  0.0mm 0.00 W/m2
19:35 52.3 °F /  11.3 °C 46.8 °F /  8.2 °C 30.2in /  1021.2hPa Calm     81% 0in /  0.0mm 0.00 W/m2
19:40 52.2 °F /  11.2 °C 46.8 °F /  8.2 °C 30.2in /  1021.2hPa Calm     82% 0in /  0.0mm 0.00 W/m2
19:45 51.8 °F /  11.0 °C 46.4 °F /  8.0 °C 30.2in /  1021.2hPa Calm     82% 0in /  0.0mm 0.00 W/m2
19:50 51.4 °F /  10.8 °C 46.4 °F /  8.0 °C 30.2in /  1021.2hPa Calm     83% 0in /  0.0mm 0.00 W/m2
19:55 51.1 °F /  10.6 °C 46 °F /  7.8 °C 30.2in /  1021.2hPa Calm     83% 0in /  0.0mm 0.00 W/m2
20:00 51.1 °F /  10.6 °C 46.4 °F /  8.0 °C 30.2in /  1021.2hPa Calm     84% 0in /  0.0mm 0.00 W/m2
20:05 50.7 °F /  10.4 °C 46 °F /  7.8 °C 30.2in /  1021.2hPa Calm     84% 0in /  0.0mm 0.00 W/m2
20:10 50.7 °F /  10.4 °C 46 °F /  7.8 °C 30.2in /  1021.2hPa Calm     84% 0in /  0.0mm 0.00 W/m2
20:15 50.7 °F /  10.4 °C 46.4 °F /  8.0 °C 30.2in /  1021.2hPa Calm     85% 0in /  0.0mm 0.00 W/m2
20:20 50.5 °F /  10.3 °C 46.2 °F /  7.9 °C 30.2in /  1021.2hPa Calm     85% 0in /  0.0mm 0.00 W/m2
20:25 50.5 °F /  10.3 °C 46.2 °F /  7.9 °C 30.2in /  1020.9hPa Calm     85% 0in /  0.0mm 0.00 W/m2
20:30 50.4 °F /  10.2 °C 46 °F /  7.8 °C 30.2in /  1020.9hPa Calm     85% 0in /  0.0mm 0.00 W/m2
20:35 50.2 °F /  10.1 °C 46.2 °F /  7.9 °C 30.2in /  1020.9hPa Calm     86% 0in /  0.0mm 0.00 W/m2
20:40 49.8 °F /  9.9 °C 45.9 °F /  7.7 °C 30.2in /  1020.9hPa Calm     86% 0in /  0.0mm 0.00 W/m2
20:54 49.5 °F /  9.7 °C 45.7 °F /  7.6 °C 30.2in /  1020.9hPa Calm     87% 0in /  0.0mm 0.00 W/m2
20:55 49.3 °F /  9.6 °C 45.5 °F /  7.5 °C 30.2in /  1020.9hPa Calm     87% 0in /  0.0mm 0.00 W/m2
21:00 49.3 °F /  9.6 °C 45.5 °F /  7.5 °C 30.2in /  1020.9hPa Calm     87% 0in /  0.0mm 0.00 W/m2
21:05 49.1 °F /  9.5 °C 45.3 °F /  7.4 °C 30.2in /  1020.9hPa Calm     87% 0in /  0.0mm 0.00 W/m2
21:10 49.1 °F /  9.5 °C 45.3 °F /  7.4 °C 30.2in /  1020.9hPa Calm     87% 0in /  0.0mm 0.00 W/m2
21:15 48.7 °F /  9.3 °C 45 °F /  7.2 °C 30.2in /  1020.9hPa Calm     87% 0in /  0.0mm 0.00 W/m2
21:20 48.6 °F /  9.2 °C 44.8 °F /  7.1 °C 30.2in /  1020.9hPa Calm     87% 0in /  0.0mm 0.00 W/m2
21:25 48.4 °F /  9.1 °C 44.8 °F /  7.1 °C 30.2in /  1020.9hPa Calm     87% 0in /  0.0mm 0.00 W/m2
21:30 48 °F /  8.9 °C 44.6 °F /  7.0 °C 30.2in /  1020.9hPa Calm   1mph /  1.6km/h 88% 0in /  0.0mm 0.00 W/m2
21:35 48 °F /  8.9 °C 44.6 °F /  7.0 °C 30.2in /  1020.9hPa Calm   1mph /  1.6km/h 88% 0in /  0.0mm 0.00 W/m2
21:40 47.7 °F /  8.7 °C 44.2 °F /  6.8 °C 30.2in /  1020.9hPa WSW 0.9mph /  1.4km/h 1mph /  1.6km/h 88% 0in /  0.0mm 0.00 W/m2
21:45 47.5 °F /  8.6 °C 44.1 °F /  6.7 °C 30.2in /  1020.9hPa Calm     88% 0in /  0.0mm 0.00 W/m2
21:50 47.5 °F /  8.6 °C 44.4 °F /  6.9 °C 30.2in /  1020.9hPa Calm     89% 0in /  0.0mm 0.00 W/m2
21:55 47.5 °F /  8.6 °C 44.4 °F /  6.9 °C 30.2in /  1021.2hPa Calm     89% 0in /  0.0mm 0.00 W/m2
22:00 47.5 °F /  8.6 °C 44.4 °F /  6.9 °C 30.2in /  1021.2hPa Calm     89% 0in /  0.0mm 0.00 W/m2
22:05 47.3 °F /  8.5 °C 44.2 °F /  6.8 °C 30.2in /  1021.2hPa Calm     89% 0in /  0.0mm 0.00 W/m2
22:10 47.3 °F /  8.5 °C 44.2 °F /  6.8 °C 30.2in /  1021.2hPa Calm     89% 0in /  0.0mm 0.00 W/m2
22:15 47.1 °F /  8.4 °C 44.1 °F /  6.7 °C 30.2in /  1021.2hPa Calm   1mph /  1.6km/h 89% 0in /  0.0mm 0.00 W/m2
22:20 46.9 °F /  8.3 °C 43.9 °F /  6.6 °C 30.2in /  1020.9hPa Calm   1mph /  1.6km/h 89% 0in /  0.0mm 0.00 W/m2
22:25 46.8 °F /  8.2 °C 43.7 °F /  6.5 °C 30.2in /  1020.9hPa Calm     89% 0in /  0.0mm 0.00 W/m2
22:30 46.8 °F /  8.2 °C 44.1 °F /  6.7 °C 30.2in /  1020.9hPa Calm     90% 0in /  0.0mm 0.00 W/m2
22:35 46.8 °F /  8.2 °C 44.1 °F /  6.7 °C 30.2in /  1020.9hPa Calm     90% 0in /  0.0mm 0.00 W/m2
22:40 46.6 °F /  8.1 °C 43.9 °F /  6.6 °C 30.2in /  1020.9hPa Calm     90% 0in /  0.0mm 0.00 W/m2
22:45 46.2 °F /  7.9 °C 43.5 °F /  6.4 °C 30.2in /  1020.9hPa Calm     90% 0in /  0.0mm 0.00 W/m2
22:50 46 °F /  7.8 °C 43.3 °F /  6.3 °C 30.2in /  1020.9hPa Calm     90% 0in /  0.0mm 0.00 W/m2
22:55 46 °F /  7.8 °C 43.3 °F /  6.3 °C 30.2in /  1020.9hPa Calm     90% 0in /  0.0mm 0.00 W/m2
23:00 46 °F /  7.8 °C 43.3 °F /  6.3 °C 30.2in /  1020.9hPa Calm     90% 0in /  0.0mm 0.00 W/m2
23:05 46 °F /  7.8 °C 43.3 °F /  6.3 °C 30.2in /  1020.9hPa Calm     90% 0in /  0.0mm 0.00 W/m2
23:10 45.9 °F /  7.7 °C 43.2 °F /  6.2 °C 30.2in /  1020.9hPa Calm     90% 0in /  0.0mm 0.00 W/m2
23:15 45.7 °F /  7.6 °C 43 °F /  6.1 °C 30.1in /  1020.5hPa Calm     90% 0in /  0.0mm 0.00 W/m2
23:20 45.7 °F /  7.6 °C 43 °F /  6.1 °C 30.1in /  1020.5hPa Calm     90% 0in /  0.0mm 0.00 W/m2
23:25 45.5 °F /  7.5 °C 43 °F /  6.1 °C 30.1in /  1020.5hPa Calm     91% 0in /  0.0mm 0.00 W/m2
23:30 45.3 °F /  7.4 °C 42.8 °F /  6.0 °C 30.1in /  1020.5hPa Calm     91% 0in /  0.0mm 0.00 W/m2
23:35 45.3 °F /  7.4 °C 42.8 °F /  6.0 °C 30.1in /  1020.5hPa Calm     91% 0in /  0.0mm 0.00 W/m2
23:40 45.1 °F /  7.3 °C 42.6 °F /  5.9 °C 30.1in /  1020.5hPa Calm     91% 0in /  0.0mm 0.00 W/m2
23:45 45.1 °F /  7.3 °C 42.6 °F /  5.9 °C 30.1in /  1020.5hPa Calm     91% 0in /  0.0mm 0.00 W/m2
23:50 44.8 °F /  7.1 °C 42.3 °F /  5.7 °C 30.1in /  1020.5hPa Calm     91% 0in /  0.0mm 0.00 W/m2
23:55 44.8 °F /  7.1 °C 42.3 °F /  5.7 °C 30.1in /  1020.5hPa Calm     91% 0in /  0.0mm 0.00 W/m2